UTC

FR8404 flight history

Full flight history for Ryanair flight FR8404

   
Aircraft  
 
Registration 
 
ALTITUDE00000 FTSPEED000 KTSTRACK000 °UTC TIME00:00
DateFromToAircraftSTDATDSTAStatus 
* All dates and times are in UTC timezone
2014-09-30Brno (BRQ)London (STN)-15:10-17:20Scheduled 
2014-09-29Brno (BRQ)London (STN)-09:05-11:15Scheduled 
2014-09-28Brno (BRQ)London (STN)-09:50-12:00Scheduled 
2014-09-27Brno (BRQ)London (STN)-20:15-22:25Scheduled 
2014-09-26Brno (BRQ)London (STN)-13:05-15:15Scheduled 
2014-09-25Brno (BRQ)London (STN)-15:05-17:15Scheduled 
2014-09-24Brno (BRQ)London (STN)-20:15-22:25Scheduled 
2014-09-23Brno (BRQ)London (STN)-15:10-17:20Scheduled 
2014-09-22Brno (BRQ)London (STN)B738 (EI-EVA)09:0509:1911:15Landed 11:12
2014-09-21Brno (BRQ)London (STN)B738 (EI-DWI)09:5010:1512:00Landed 12:09
2014-09-20Brno (BRQ)London (STN)B738 (EI-DCW)20:1520:2822:25Landed 22:20
2014-09-19Brno (BRQ)London (STN)B738 (EI-DCL)13:0513:3915:15Landed 15:31
2014-09-18Brno (BRQ)London (STN)B738 (EI-EKI)15:0515:1217:15Landed 17:03
2014-09-17Brno (BRQ)London (STN)B738 (EI-DWO)20:1520:2022:25Landed 22:10
2014-09-16Brno (BRQ)London (STN)B738 (EI-DPH)15:1015:2617:20Landed 17:08
2014-09-15Brno (BRQ)London (STN)B738 (EI-DCH)09:0509:4111:15Landed 11:25
2014-09-14Brno (BRQ)London (STN)B738 (EI-EVB)09:5010:0212:00Landed 11:48
2014-09-13Brno (BRQ)London (STN)B738 (EI-DLC)20:1520:3922:25Landed 22:26
2014-09-12Brno (BRQ)London (STN)B738 (EI-EVT)13:0514:0315:15Landed 15:43
2014-09-11Brno (BRQ)London (STN)B738 (EI-DLY)15:0515:3317:15Landed 17:20
2014-09-10Brno (BRQ)London (STN)B738 (EI-EVL)20:1520:1822:25Landed 22:04
2014-09-09Brno (BRQ)London (STN)B738 (EI-EMI)15:1015:1217:20Landed 17:05
2014-09-08Brno (BRQ)London (STN)B738 (EI-DHN)09:0509:1911:15Landed 11:10
2014-09-07Brno (BRQ)London (STN)B738 (EI-DHN)09:5009:5612:00Landed 11:46
2014-09-06Brno (BRQ)London (STN)B738 (EI-EBZ)20:1520:1022:25Landed 21:55
2014-09-05Brno (BRQ)London (STN)B738 (EI-DYF)13:0513:1315:15Landed 14:59
2014-09-04Brno (BRQ)London (STN)B738 (EI-DHN)15:0515:2017:15Landed 17:09
2014-09-03Brno (BRQ)London (STN)B738 (EI-EFC)20:1520:2822:25Landed 22:10
2014-09-02Brno (BRQ)London (STN)B738 (EI-EVI)15:1015:2417:20Landed 17:07
2014-09-01Brno (BRQ)London (STN)B738 (EI-DHN)09:0509:0911:15Landed 11:01
2014-08-31Brno (BRQ)London (STN)B738 (EI-DAK)09:5010:0312:00Landed 11:49
2014-08-29Brno (BRQ)London (STN)B738 (EI-EGC)13:0513:2115:15Landed 15:12
2014-08-28Brno (BRQ)London (STN)B738 (EI-EPA)15:0515:0617:15Landed 16:58
2014-08-26Brno (BRQ)London (STN)B738 (EI-DLH)15:1015:2117:20Landed 17:17
2014-08-25Brno (BRQ)London (STN)B738 (EI-DCO)09:0509:1711:15Landed 11:16
2014-08-24Brno (BRQ)London (STN)B738 (EI-DHH)09:5009:5912:00Landed 11:46
2014-08-22Brno (BRQ)London (STN)B738 (EI-DCK)13:0513:1215:15Landed 15:03
2014-08-21Brno (BRQ)London (STN)B738 (EI-DCG)15:0515:1917:15Landed 17:12
2014-08-19Brno (BRQ)London (STN)B738 (EI-EVX)15:1015:1217:20Landed 17:03
2014-08-18Brno (BRQ)London (STN)B738 (EI-DCY)09:0509:0911:15Landed 11:05
2014-08-17Brno (BRQ)London (STN)B738 (EI-DHN)09:5010:0512:00Landed 11:56
2014-08-15Brno (BRQ)London (STN)B738 (EI-DLJ)13:0513:2315:15Landed 15:12
2014-08-14Brno (BRQ)London (STN)B738 (EI-DAF)15:0515:3217:15Landed 17:15
2014-08-12Brno (BRQ)London (STN)B738 (EI-EPD)15:1015:1817:20Landed 17:09
2014-08-11Brno (BRQ)London (STN)B738 (EI-DHN)09:0509:1911:15Landed 11:07
2014-08-10Brno (BRQ)London (STN)B738 (EI-DLI)09:5009:5912:00Landed 11:49
2014-08-08Brno (BRQ)London (STN)B738 (EI-DLW)13:0513:1115:15Landed 15:20
2014-08-07Brno (BRQ)London (STN)B738 (EI-DPO)15:0515:1817:15Landed 17:07
2014-08-05Brno (BRQ)London (STN)B738 (EI-DCO)15:1015:1817:20Landed 17:02
2014-08-04Brno (BRQ)London (STN)B738 (EI-DAE)09:0509:2711:15Landed 11:07
2014-08-03Brno (BRQ)London (STN)B738 (EI-EFA)09:5010:0112:00Landed 11:39
2014-08-01Brno (BRQ)London (STN)B738 (EI-DCL)13:0513:1815:15Landed 15:05
2014-07-31Brno (BRQ)London (STN)B738 (EI-DAN)15:0515:4617:15Landed 17:34
2014-07-29Brno (BRQ)London (STN)B738 (EI-DLI)15:1015:4617:20Landed 17:36
2014-07-28Brno (BRQ)London (STN)B738 (EI-EKA)09:0509:4911:15Landed 11:31
2014-07-27Brno (BRQ)London (STN)B738 (EI-EFS)09:5010:0412:00Landed 11:56
2014-07-25Brno (BRQ)London (STN)B738 (EI-DPG)13:0513:1215:15Landed 14:57
2014-07-24Brno (BRQ)London (STN)B738 (EI-DYO)15:0515:1817:15Landed 17:00
2014-07-22Brno (BRQ)London (STN)B738 (EI-DHN)15:1015:2417:20Landed 17:16
2014-07-21Brno (BRQ)London (STN)B738 (EI-DAF)09:0509:1711:15Landed 10:58
2014-07-20Brno (BRQ)London (STN)B738 (EI-EKM)09:5010:1812:00Landed 11:59
2014-07-18Brno (BRQ)London (STN)B738 (EI-DAC)13:0513:1515:15Landed 14:59
2014-07-17Brno (BRQ)London (STN)B738 (EI-DAN)15:0515:1817:15Landed 17:05
2014-07-15Brno (BRQ)London (STN)B738 (EI-EGB)15:1015:1517:20Landed 17:01
2014-07-14Brno (BRQ)London (STN)B738 (EI-DHN)09:0509:1511:15Landed 11:01
2014-07-13Brno (BRQ)London (STN)B738 (EI-DHP)09:5009:4812:00Landed 11:31
2014-07-11Brno (BRQ)London (STN)B738 (EI-DLE)13:0513:3015:15Landed 15:20
2014-07-10Brno (BRQ)London (STN)B738 (EI-DWA)15:0515:5717:15Landed 17:45
2014-07-08Brno (BRQ)London (STN)B738 (EI-DPI)15:1015:4317:20Landed 17:26
2014-07-07Brno (BRQ)London (STN)B738 (EI-DAC)09:0509:2311:15Landed 11:05
2014-07-06Brno (BRQ)London (STN)B738 (EI-EFF)09:5009:5812:00Landed 11:45
2014-07-04Brno (BRQ)London (STN)B738 (EI-EKM)13:0513:5315:15Landed 15:37
2014-07-03Brno (BRQ)London (STN)B738 (EI-DCJ)15:0515:0717:15Landed 16:55
2014-07-01Brno (BRQ)London (STN)B738 (EI-EMF)15:1015:2517:20Landed 17:18
2014-06-30Brno (BRQ)London (STN)B738 (EI-EML)09:0509:2111:15Landed 11:05
2014-06-29Brno (BRQ)London (STN)B738 (EI-DLB)09:5010:0612:00Landed 11:59
2014-06-28Brno (BRQ)London (STN)B738 (EI-DHY)20:1520:2022:25Landed 22:15
2014-06-27Brno (BRQ)London (STN)B738 (EI-DAK)14:0514:1916:15Landed 16:09
2014-06-26Brno (BRQ)London (STN)B738 (EI-EMI)15:0515:0817:15Landed 17:04
2014-06-25Brno (BRQ)London (STN)B738 (EI-DPB)20:1521:0322:25Landed 22:56
2014-06-24Brno (BRQ)London (STN)B738 (EI-DPN)15:1015:4417:20Landed 17:39
2014-06-23Brno (BRQ)London (STN)B738 (EI-DWT)09:0509:1611:15Landed 11:05
2014-06-22Brno (BRQ)London (STN)B738 (EI-DPN)09:5009:5212:00Landed 11:49
2014-06-21Brno (BRQ)London (STN)B738 (EI-DLX)20:1520:2022:25Landed 22:13
2014-06-20Brno (BRQ)London (STN)B738 (EI-EBA)14:0514:1916:15Landed 16:13
2014-06-19Brno (BRQ)London (STN)B738 (EI-EMN)15:0515:1617:15Landed 17:05
2014-06-18Brno (BRQ)London (STN)B738 (EI-DCL)20:1520:3822:25Landed 22:16
2014-06-17Brno (BRQ)London (STN)B738 (EI-DWK)15:1015:2017:20Landed 17:07
2014-06-16Brno (BRQ)London (STN)B738 (EI-DWK)09:0509:2911:15Landed 11:18
2014-06-15Brno (BRQ)London (STN)B738 (EI-DHE)09:5010:0712:00Landed 11:52
2014-06-14Brno (BRQ)London (STN)B738 (EI-EBH)20:1520:4922:25Landed 22:38
2014-06-13Brno (BRQ)London (STN)B738 (EI-DAN)14:0514:2116:15Landed 16:14
2014-06-12Brno (BRQ)London (STN)B738 (EI-DHF)15:0515:1017:15Landed 17:01
2014-06-11Brno (BRQ)London (STN)B738 (EI-EBA)20:1520:4822:25Landed 22:31
2014-06-10Brno (BRQ)London (STN)B738 (EI-EPD)15:1015:3117:20Landed 17:17
2014-06-09Brno (BRQ)London (STN)B738 (EI-EPD)09:0509:2611:15Landed 11:16
2014-06-08Brno (BRQ)London (STN)B738 (EI-EVF)09:5009:5912:00Landed 11:48
2014-06-07Brno (BRQ)London (STN)B738 (EI-EFG)20:1520:1522:25Landed 22:20
2014-06-06Brno (BRQ)London (STN)B738 (EI-EVZ)14:0514:1316:15Landed 16:02
2014-06-05Brno (BRQ)London (STN)B738 (EI-EFH)15:0515:1017:15Landed 16:55
2014-06-04Brno (BRQ)London (STN)B738 (EI-EMI)20:1520:2422:25Landed 22:06
2014-06-03Brno (BRQ)London (STN)B738 (EI-EFH)15:1015:1717:20Landed 17:01
2014-06-02Brno (BRQ)London (STN)B738 (EI-DCM)09:0509:2511:15Landed 11:09
2014-06-01Brno (BRQ)London (STN)B738 (EI-EMP)09:5010:1312:00Landed 11:57
2014-05-31Brno (BRQ)London (STN)B738 (EI-EFC)20:1520:4822:25Landed 22:35
2014-05-30Brno (BRQ)London (STN)B738 (EI-DHG)13:0513:1715:15Landed 15:06
2014-05-29Brno (BRQ)London (STN)B738 (EI-EVX)15:0515:2317:15Landed 17:10
2014-05-28Brno (BRQ)London (STN)B738 (EI-EMF)20:1520:3622:25Landed 22:16
2014-05-27Brno (BRQ)London (STN)B738 (EI-EMP)15:1015:3417:20Landed 17:22
2014-05-26Brno (BRQ)London (STN)B738 (EI-DLB)09:0509:2111:15Landed 11:07
2014-05-25Brno (BRQ)London (STN)B738 (EI-EMI)09:5010:0212:00Landed 11:46
2014-05-24Brno (BRQ)London (STN)B738 (EI-EMI)20:1520:4222:25Landed 22:25
2014-05-23Brno (BRQ)London (STN)B738 (EI-DCJ)13:0513:0715:15Landed 14:53
2014-05-22Brno (BRQ)London (STN)B738 (EI-EPE)15:0515:2617:15Landed 17:12